Time;durP1;ratioP1;P1;durP2;ratioP2;P2;SDS_P1;SDS_P2;PMS_P1;PMS_P2;Temp;Humidity;BMP_temperature;BMP_pressure;BME280_temperature;BME280_humidity;BME280_pressure;Samples;Min_cycle;Max_cycle;Signal;HPM_P1;HPM_P2
2022/03/02 00:00:55;;;;;;;;;;;;;;;4.03;74.21;102825.75;2071174;28;38872;-66
2022/03/02 00:01:58;;;;;;;;;;;;;;;4.02;73.88;102826.63;2063051;28;43940;-66
2022/03/02 00:02:59;;;;;;;;;;;;;;;4.03;73.93;102827.50;2063043;28;45603;-66
2022/03/02 00:04:01;;;;;;;;;;;;;;;4.00;73.77;102828.28;2063067;28;42716;-66
2022/03/02 00:05:04;;;;;;;;;;;;;;;3.99;74.10;102834.47;2062582;28;45888;-66
2022/03/02 00:06:05;;;;;;;;;;;;;;;3.97;74.24;102831.75;2063835;28;19937;-65
2022/03/02 00:07:07;;;;;;;;;;;;;;;3.96;74.07;102832.59;2063684;28;45012;-65
2022/03/02 00:08:09;;;;;;;;;;;;;;;3.94;74.10;102828.97;2063147;28;45353;-65
2022/03/02 00:09:10;;;;;;;;;;;;;;;3.94;74.42;102830.75;2065151;28;19937;-66
2022/03/02 00:10:14;;;;;;;;;;;;;;;3.94;74.25;102836.03;2063452;28;19926;-65
2022/03/02 00:11:16;;;;;;;;;;;;;;;3.92;74.22;102841.28;2063374;28;44605;-65
2022/03/02 00:12:18;;;;;;;;;;;;;;;3.91;74.20;102833.28;2064311;28;43653;-66
2022/03/02 00:13:19;;;;;;;;;;;;;;;3.89;74.43;102834.97;2063616;28;44138;-65
2022/03/02 00:14:21;;;;;;;;;;;;;;;3.89;74.73;102832.31;2063958;28;45953;-65
2022/03/02 00:15:22;;;;;;;;;;;;;;;3.88;74.49;102830.53;2063948;28;44525;-65
2022/03/02 00:16:24;;;;;;;;;;;;;;;3.85;74.53;102831.31;2063140;28;45859;-65
2022/03/02 00:17:26;;;;;;;;;;;;;;;3.83;74.29;102831.25;2064096;28;44528;-64
2022/03/02 00:18:27;;;;;;;;;;;;;;;3.82;74.67;102824.19;2063035;28;39501;-65
2022/03/02 00:19:29;;;;;;;;;;;;;;;3.80;74.60;102825.88;2062659;28;46729;-65
2022/03/02 00:20:30;;;;;;;;;;;;;;;3.79;74.83;102829.34;2063195;28;46190;-66
2022/03/02 00:21:32;;;;;;;;;;;;;;;3.79;74.88;102829.34;2063496;28;44005;-66
2022/03/02 00:22:34;;;;;;;;;;;;;;;3.78;74.86;102827.53;2064008;28;20072;-66
2022/03/02 00:23:36;;;;;;;;;;;;;;;3.76;75.06;102823.94;2064014;28;24011;-66
2022/03/02 00:24:37;;;;;;;;;;;;;;;3.74;74.84;102820.34;2063693;28;46176;-65
2022/03/02 00:25:39;;;;;;;;;;;;;;;3.74;75.20;102830.03;2065039;28;43256;-65
2022/03/02 00:26:40;;;;;;;;;;;;;;;3.73;74.66;102829.16;2062655;28;45435;-66
2022/03/02 00:27:42;;;;;;;;;;;;;;;3.72;74.63;102824.69;2064258;28;37492;-66
2022/03/02 00:28:44;;;;;;;;;;;;;;;3.72;74.64;102826.44;2063828;28;43265;-66
2022/03/02 00:29:46;;;;;;;;;;;;;;;3.72;74.81;102823.78;2072302;28;20819;-65
2022/03/02 00:30:47;;;;;;;;;;;;;;;3.72;74.57;102829.09;2070904;28;44248;-65
2022/03/02 00:31:49;;;;;;;;;;;;;;;3.73;74.55;102829.16;2063229;28;44075;-64
2022/03/02 00:32:51;;;;;;;;;;;;;;;3.71;74.43;102828.16;2063368;28;43872;-65
2022/03/02 00:33:53;;;;;;;;;;;;;;;3.71;74.58;102821.97;2064341;28;44681;-65
2022/03/02 00:34:54;;;;;;;;;;;;;;;3.71;74.63;102825.53;2062730;28;45036;-65
2022/03/02 00:35:56;;;;;;;;;;;;;;;3.70;74.53;102813.13;2063823;28;41710;-65
2022/03/02 00:36:57;;;;;;;;;;;;;;;3.69;74.68;102821.91;2064413;28;19930;-65
2022/03/02 00:37:59;;;;;;;;;;;;;;;3.69;74.48;102827.22;2063360;28;44581;-65
2022/03/02 00:39:01;;;;;;;;;;;;;;;3.69;74.51;102827.22;2063443;28;43992;-65
2022/03/02 00:40:05;;;;;;;;;;;;;;;3.70;74.71;102820.19;2063215;28;44925;-65
2022/03/02 00:41:07;;;;;;;;;;;;;;;3.70;74.31;102822.84;2062592;28;42720;-65
2022/03/02 00:42:09;;;;;;;;;;;;;;;3.72;74.40;102811.44;2063751;28;35883;-65
2022/03/02 00:43:11;;;;;;;;;;;;;;;3.72;74.06;102821.16;2070791;28;47226;-65
2022/03/02 00:44:14;;;;;;;;;;;;;;;3.74;74.11;102809.75;2064902;28;19996;-65
2022/03/02 00:45:16;;;;;;;;;;;;;;;3.71;73.73;102809.63;2063661;28;46715;-66
2022/03/02 00:46:18;;;;;;;;;;;;;;;3.73;73.92;102810.59;2064690;28;19937;-65
2022/03/02 00:47:19;;;;;;;;;;;;;;;3.74;73.10;102814.16;2063548;28;40772;-65
2022/03/02 00:48:21;;;;;;;;;;;;;;;3.76;73.41;102808.03;2063779;28;45791;-66
2022/03/02 00:49:26;;;;;;;;;;;;;;;3.76;73.57;102813.34;2063037;28;43968;-65
2022/03/02 00:50:29;;;;;;;;;;;;;;;3.77;73.33;102809.84;2063261;28;45181;-65
2022/03/02 00:51:30;;;;;;;;;;;;;;;3.77;73.11;102807.22;2063366;28;44255;-65
2022/03/02 00:52:35;;;;;;;;;;;;;;;3.79;72.24;102807.28;2064198;28;19926;-65
2022/03/02 00:53:36;;;;;;;;;;;;;;;3.81;72.67;102808.22;2063643;28;44591;-65
2022/03/02 00:54:38;;;;;;;;;;;;;;;3.80;72.34;102804.69;2063305;28;44961;-65
2022/03/02 00:55:40;;;;;;;;;;;;;;;3.82;72.16;102808.28;2064295;28;45448;-65
2022/03/02 00:56:43;;;;;;;;;;;;;;;3.83;72.21;102809.16;2066721;28;19930;-65
2022/03/02 00:57:45;;;;;;;;;;;;;;;3.83;72.08;102804.75;2064854;28;20016;-65
2022/03/02 00:58:47;;;;;;;;;;;;;;;3.86;71.98;102803.06;2063957;28;38520;-65
2022/03/02 00:59:48;;;;;;;;;;;;;;;3.86;71.65;102808.34;2063094;28;42069;-65
2022/03/02 01:00:50;;;;;;;;;;;;;;;3.87;71.53;102810.19;2064611;28;21138;-65
2022/03/02 01:01:52;;;;;;;;;;;;;;;3.86;71.67;102803.97;2062327;28;45850;-65
2022/03/02 01:02:54;;;;;;;;;;;;;;;3.88;71.45;102804.03;2062898;28;45540;-66
2022/03/02 01:03:59;;;;;;;;;;;;;;;3.89;71.13;102803.19;2063267;28;46585;-65
2022/03/02 01:05:00;;;;;;;;;;;;;;;3.90;71.05;102805.00;2063505;28;43079;-65
2022/03/02 01:06:03;;;;;;;;;;;;;;;3.90;70.91;102799.69;2063423;28;43058;-65
2022/03/02 01:07:07;;;;;;;;;;;;;;;3.88;71.44;102797.00;2064403;28;19926;-65
2022/03/02 01:08:09;;;;;;;;;;;;;;;3.88;71.53;102797.00;2063148;28;43912;-65
2022/03/02 01:09:10;;;;;;;;;;;;;;;3.88;71.66;102797.00;2063409;28;45049;-65
2022/03/02 01:10:12;;;;;;;;;;;;;;;3.88;71.42;102798.75;2062997;28;43248;-64
2022/03/02 01:11:14;;;;;;;;;;;;;;;3.89;71.62;102792.56;2063293;28;44594;-65
2022/03/02 01:12:15;;;;;;;;;;;;;;;3.89;71.45;102792.56;2063746;28;28161;-65
2022/03/02 01:13:17;;;;;;;;;;;;;;;3.89;71.48;102798.78;2063585;28;45195;-65
2022/03/02 01:14:19;;;;;;;;;;;;;;;3.88;71.53;102791.69;2063520;28;42369;-65
2022/03/02 01:15:23;;;;;;;;;;;;;;;3.88;71.87;102794.34;2064555;28;19933;-65
2022/03/02 01:16:25;;;;;;;;;;;;;;;3.86;71.67;102788.09;2063258;28;44558;-65
2022/03/02 01:17:27;;;;;;;;;;;;;;;3.87;71.88;102794.28;2071019;28;46266;-65
2022/03/02 01:18:28;;;;;;;;;;;;;;;3.87;71.83;102787.22;2071266;28;45134;-65
2022/03/02 01:19:30;;;;;;;;;;;;;;;3.87;71.53;102788.97;2063430;28;44395;-65
2022/03/02 01:20:31;;;;;;;;;;;;;;;3.87;71.94;102788.97;2063534;28;46107;-65
2022/03/02 01:21:33;;;;;;;;;;;;;;;3.85;71.91;102791.56;2063310;28;45133;-65
2022/03/02 01:22:35;;;;;;;;;;;;;;;3.86;72.04;102787.16;2063240;28;46697;-65
2022/03/02 01:23:37;;;;;;;;;;;;;;;3.83;72.04;102787.97;2064577;28;19933;-65
2022/03/02 01:24:41;;;;;;;;;;;;;;;3.81;72.15;102785.25;2063183;28;44567;-65
2022/03/02 01:25:43;;;;;;;;;;;;;;;3.81;72.31;102787.03;2063473;28;36637;-65
2022/03/02 01:26:46;;;;;;;;;;;;;;;3.78;72.12;102782.50;2063752;28;44006;-65
2022/03/02 01:27:47;;;;;;;;;;;;;;;3.76;72.33;102776.25;2063126;28;45434;-65
2022/03/02 01:28:49;;;;;;;;;;;;;;;3.75;72.29;102773.53;2062657;28;40147;-65
2022/03/02 01:29:53;;;;;;;;;;;;;;;3.73;72.23;102776.16;2063583;28;37520;-65
2022/03/02 01:30:55;;;;;;;;;;;;;;;3.73;72.76;102775.25;2071057;28;46155;-66
2022/03/02 01:32:04;;;;;;;;;;;;;;;3.71;72.89;102769.00;2069985;28;41086;-65
2022/03/02 01:33:06;;;;;;;;;;;;;;;3.70;72.81;102765.47;2063395;28;45590;-66
2022/03/02 01:34:08;;;;;;;;;;;;;;;3.68;72.86;102775.09;2063495;28;44681;-65
2022/03/02 01:35:11;;;;;;;;;;;;;;;3.66;73.10;102763.56;2062734;28;44597;-65
2022/03/02 01:36:13;;;;;;;;;;;;;;;3.65;73.33;102756.44;2063469;28;46046;-65
2022/03/02 01:37:15;;;;;;;;;;;;;;;3.65;73.45;102761.75;2063369;28;43838;-65
2022/03/02 01:38:17;;;;;;;;;;;;;;;3.62;73.05;102767.84;2064071;28;32261;-65
2022/03/02 01:39:19;;;;;;;;;;;;;;;3.61;73.57;102766.03;2063088;28;44119;-65
2022/03/02 01:40:21;;;;;;;;;;;;;;;3.58;73.42;102757.97;2063702;28;38493;-65
2022/03/02 01:41:25;;;;;;;;;;;;;;;3.59;73.22;102761.53;2062914;28;45229;-65
2022/03/02 01:42:29;;;;;;;;;;;;;;;3.56;73.42;102759.66;2063742;28;19926;-65
2022/03/02 01:43:31;;;;;;;;;;;;;;;3.55;73.56;102756.97;2061643;28;44639;-65
2022/03/02 01:44:34;;;;;;;;;;;;;;;3.53;73.56;102756.00;2062441;28;45929;-66
2022/03/02 01:45:35;;;;;;;;;;;;;;;3.52;73.90;102762.16;2061892;28;39319;-66
2022/03/02 01:46:37;;;;;;;;;;;;;;;3.51;73.54;102757.72;2063179;28;46444;-64
2022/03/02 01:47:39;;;;;;;;;;;;;;;3.51;73.70;102763.00;2063561;28;44099;-63
2022/03/02 01:48:41;;;;;;;;;;;;;;;3.50;74.31;102755.88;2063222;28;32213;-64
2022/03/02 01:49:42;;;;;;;;;;;;;;;3.49;74.02;102764.69;2062681;28;43589;-64
2022/03/02 01:50:44;;;;;;;;;;;;;;;3.46;73.93;102759.28;2063235;28;45596;-64
2022/03/02 01:51:46;;;;;;;;;;;;;;;3.45;74.21;102758.41;2070311;28;45268;-64
2022/03/02 01:52:47;;;;;;;;;;;;;;;3.44;74.24;102753.94;2070922;28;44271;-63
2022/03/02 01:53:49;;;;;;;;;;;;;;;3.44;74.19;102760.13;2063567;28;37131;-64
2022/03/02 01:54:50;;;;;;;;;;;;;;;3.43;74.29;102755.69;2063417;28;46630;-64
2022/03/02 01:55:56;;;;;;;;;;;;;;;3.43;74.32;102757.44;2063042;28;45230;-63
2022/03/02 01:56:57;;;;;;;;;;;;;;;3.42;74.84;102755.63;2062668;28;40512;-64
2022/03/02 01:57:59;;;;;;;;;;;;;;;3.40;74.45;102755.56;2062242;28;42697;-64
2022/03/02 01:59:04;;;;;;;;;;;;;;;3.40;74.33;102755.56;2062335;28;45771;-64
2022/03/02 02:00:09;;;;;;;;;;;;;;;3.40;74.70;102752.03;2054146;28;44957;-64
2022/03/02 02:01:11;;;;;;;;;;;;;;;3.39;74.90;102756.44;2055641;28;44030;-64
2022/03/02 02:02:13;;;;;;;;;;;;;;;3.37;74.70;102760.75;2055368;28;44666;-64
2022/03/02 02:03:15;;;;;;;;;;;;;;;3.37;74.57;102760.75;2054744;28;42548;-64
2022/03/02 02:04:17;;;;;;;;;;;;;;;3.37;74.41;102760.75;2054454;28;45554;-64
2022/03/02 02:05:19;;;;;;;;;;;;;;;3.38;74.78;102754.63;2054023;28;43813;-64
2022/03/02 02:06:21;;;;;;;;;;;;;;;3.38;75.24;102751.06;2055524;28;21454;-64
2022/03/02 02:07:22;;;;;;;;;;;;;;;3.36;74.71;102753.66;2055056;28;45802;-64
2022/03/02 02:08:24;;;;;;;;;;;;;;;3.34;74.96;102758.00;2054403;28;46309;-64
2022/03/02 02:09:26;;;;;;;;;;;;;;;3.36;75.22;102747.47;2054374;28;42860;-64
2022/03/02 02:10:28;;;;;;;;;;;;;;;3.36;75.26;102753.66;2054393;28;46533;-64
2022/03/02 02:11:31;;;;;;;;;;;;;;;3.35;74.99;102757.16;2055636;28;19926;-64
2022/03/02 02:12:33;;;;;;;;;;;;;;;3.35;75.44;102750.97;2054441;28;45404;-64
2022/03/02 02:13:34;;;;;;;;;;;;;;;3.35;74.83;102751.84;2055215;28;45291;-64
2022/03/02 02:14:36;;;;;;;;;;;;;;;3.36;75.19;102745.72;2055668;28;43266;-64
2022/03/02 02:15:37;;;;;;;;;;;;;;;3.35;75.14;102751.84;2055701;28;46234;-64
2022/03/02 02:16:39;;;;;;;;;;;;;;;3.35;74.91;102745.66;2056413;28;42672;-64
2022/03/02 02:17:41;;;;;;;;;;;;;;;3.35;75.04;102743.91;2055945;28;43053;-64
2022/03/02 02:18:43;;;;;;;;;;;;;;;3.34;75.41;102744.78;2057230;28;20795;-64
2022/03/02 02:19:44;;;;;;;;;;;;;;;3.34;75.08;102739.47;2055368;28;43411;-64
2022/03/02 02:20:46;;;;;;;;;;;;;;;3.34;75.32;102738.56;2056377;28;37045;-64
2022/03/02 02:21:48;;;;;;;;;;;;;;;3.34;75.42;102736.81;2055797;28;44377;-64
2022/03/02 02:22:50;;;;;;;;;;;;;;;3.34;75.14;102743.84;2056717;28;39066;-64
2022/03/02 02:23:51;;;;;;;;;;;;;;;3.33;75.13;102737.66;2056360;28;44483;-64
2022/03/02 02:24:53;;;;;;;;;;;;;;;3.32;75.30;102735.88;2057204;28;42895;-64
2022/03/02 02:25:54;;;;;;;;;;;;;;;3.32;75.49;102737.59;2056245;28;43180;-64
2022/03/02 02:26:56;;;;;;;;;;;;;;;3.32;75.58;102741.16;2056664;28;46032;-64
2022/03/02 02:28:01;;;;;;;;;;;;;;;3.32;75.46;102735.88;2060535;28;45469;-64
2022/03/02 02:29:07;;;;;;;;;;;;;;;3.32;75.45;102741.16;2064332;28;45078;-64
2022/03/02 02:30:08;;;;;;;;;;;;;;;3.31;75.69;102739.34;2064596;28;34694;-64
2022/03/02 02:31:10;;;;;;;;;;;;;;;3.30;75.38;102734.91;2063962;28;44049;-63
2022/03/02 02:32:12;;;;;;;;;;;;;;;3.30;75.47;102737.53;2066636;28;45974;-64
2022/03/02 02:33:15;;;;;;;;;;;;;;;3.30;75.57;102737.53;2064495;28;43648;-64
2022/03/02 02:34:17;;;;;;;;;;;;;;;3.31;75.60;102733.16;2064668;28;45433;-64
2022/03/02 02:35:19;;;;;;;;;;;;;;;3.30;75.67;102736.66;2063990;28;40730;-64
2022/03/02 02:36:21;;;;;;;;;;;;;;;3.28;75.64;102736.59;2071318;28;43170;-64
2022/03/02 02:37:23;;;;;;;;;;;;;;;3.30;74.76;102729.59;2072068;28;44815;-64
2022/03/02 02:38:24;;;;;;;;;;;;;;;3.29;75.21;102727.81;2063998;28;43903;-64
2022/03/02 02:39:27;;;;;;;;;;;;;;;3.28;75.24;102726.00;2064608;28;46239;-64
2022/03/02 02:40:29;;;;;;;;;;;;;;;3.29;75.47;102721.63;2063455;28;42714;-64
2022/03/02 02:41:32;;;;;;;;;;;;;;;3.27;75.26;102721.56;2064557;28;44395;-64
2022/03/02 02:42:34;;;;;;;;;;;;;;;3.28;74.91;102723.34;2063270;28;46164;-64
2022/03/02 02:43:37;;;;;;;;;;;;;;;3.26;74.72;102717.09;2065057;28;20044;-64
2022/03/02 02:44:39;;;;;;;;;;;;;;;3.27;75.09;102718.94;2063786;28;45083;-64
2022/03/02 02:45:41;;;;;;;;;;;;;;;3.27;74.84;102718.00;2063728;28;44603;-64
2022/03/02 02:46:44;;;;;;;;;;;;;;;3.25;75.25;102713.56;2064419;28;45327;-64
2022/03/02 02:47:50;;;;;;;;;;;;;;;3.24;74.76;102714.41;2064282;28;45573;-64
2022/03/02 02:48:51;;;;;;;;;;;;;;;3.23;75.10;102719.63;2064475;28;43026;-64
2022/03/02 02:49:53;;;;;;;;;;;;;;;3.24;75.11;102717.03;2064322;28;45832;-64
2022/03/02 02:50:55;;;;;;;;;;;;;;;3.24;74.61;102722.34;2064843;28;44775;-64
2022/03/02 02:51:57;;;;;;;;;;;;;;;3.25;74.94;102720.63;2064439;28;44223;-63
2022/03/02 02:53:02;;;;;;;;;;;;;;;3.24;74.88;102714.41;2064158;28;46345;-64
2022/03/02 02:54:04;;;;;;;;;;;;;;;3.24;75.10;102709.09;2064572;28;43131;-63
2022/03/02 02:55:09;;;;;;;;;;;;;;;3.23;75.13;102709.06;2064622;28;35280;-64
2022/03/02 02:56:12;;;;;;;;;;;;;;;3.23;74.91;102719.63;2064575;28;40362;-64
2022/03/02 02:57:14;;;;;;;;;;;;;;;3.22;74.79;102718.75;2064361;28;43263;-64
2022/03/02 02:58:19;;;;;;;;;;;;;;;3.22;74.96;102712.56;2064119;28;45233;-64
2022/03/02 02:59:24;;;;;;;;;;;;;;;3.21;74.77;102711.66;2071254;28;43365;-64
2022/03/02 03:00:29;;;;;;;;;;;;;;;3.21;74.92;102710.75;2071011;28;44606;-64
2022/03/02 03:01:30;;;;;;;;;;;;;;;3.20;74.82;102711.59;2064899;28;19930;-64
2022/03/02 03:02:32;;;;;;;;;;;;;;;3.21;74.82;102710.75;2066379;28;44319;-64
2022/03/02 03:03:33;;;;;;;;;;;;;;;3.20;74.90;102715.16;2064084;28;45255;-64
2022/03/02 03:04:35;;;;;;;;;;;;;;;3.20;74.68;102715.16;2064128;28;43057;-64
2022/03/02 03:05:37;;;;;;;;;;;;;;;3.19;74.97;102713.34;2063966;28;42068;-64
2022/03/02 03:06:39;;;;;;;;;;;;;;;3.20;75.09;102711.59;2063737;28;44571;-64
2022/03/02 03:07:43;;;;;;;;;;;;;;;3.18;74.09;102710.66;2063906;28;44339;-64
2022/03/02 03:08:47;;;;;;;;;;;;;;;3.18;74.53;102711.53;2063326;28;45049;-64
2022/03/02 03:09:51;;;;;;;;;;;;;;;3.19;74.69;102708.03;2064225;28;41645;-64
2022/03/02 03:10:52;;;;;;;;;;;;;;;3.18;74.56;102711.53;2063660;28;42870;-64
2022/03/02 03:11:54;;;;;;;;;;;;;;;3.19;74.70;102701.84;2063599;28;46412;-64
2022/03/02 03:12:56;;;;;;;;;;;;;;;3.19;74.40;102710.69;2064426;28;43107;-64
2022/03/02 03:13:58;;;;;;;;;;;;;;;3.19;74.32;102709.78;2064445;28;41198;-64
2022/03/02 03:15:02;;;;;;;;;;;;;;;3.19;74.17;102709.78;2064097;28;45520;-64
2022/03/02 03:16:04;;;;;;;;;;;;;;;3.19;74.46;102707.16;2064280;28;43872;-64
2022/03/02 03:17:08;;;;;;;;;;;;;;;3.19;74.48;102712.44;2064056;28;43409;-64
2022/03/02 03:18:10;;;;;;;;;;;;;;;3.19;73.90;102707.16;2063934;28;42901;-64
2022/03/02 03:19:13;;;;;;;;;;;;;;;3.17;74.18;102709.72;2064045;28;45535;-64
2022/03/02 03:20:20;;;;;;;;;;;;;;;3.18;73.96;102705.38;2064149;28;44740;-62
2022/03/02 03:21:21;;;;;;;;;;;;;;;3.18;74.22;102702.72;2063861;28;43988;-64
2022/03/02 03:22:23;;;;;;;;;;;;;;;3.16;74.52;102702.66;2064505;28;19930;-64
2022/03/02 03:23:24;;;;;;;;;;;;;;;3.17;73.81;102703.56;2064530;28;25871;-63
2022/03/02 03:24:26;;;;;;;;;;;;;;;3.16;73.88;102704.38;2064231;28;44460;-64
2022/03/02 03:25:28;;;;;;;;;;;;;;;3.17;74.07;102700.91;2063790;28;40966;-64
2022/03/02 03:26:30;;;;;;;;;;;;;;;3.17;73.64;102695.59;2064065;28;45578;-64
2022/03/02 03:27:31;;;;;;;;;;;;;;;3.16;73.83;102697.38;2064086;28;46340;-64
2022/03/02 03:28:33;;;;;;;;;;;;;;;3.16;74.21;102701.72;2065255;28;19934;-64
2022/03/02 03:29:37;;;;;;;;;;;;;;;3.17;73.79;102706.19;2064023;28;44408;-64
2022/03/02 03:30:39;;;;;;;;;;;;;;;3.16;74.17;102696.44;2064392;28;45930;-64
2022/03/02 03:31:40;;;;;;;;;;;;;;;3.16;73.90;102697.38;2064578;28;44446;-64
2022/03/02 03:32:42;;;;;;;;;;;;;;;3.15;74.02;102692.91;2064563;28;45769;-64
2022/03/02 03:33:45;;;;;;;;;;;;;;;3.15;74.00;102695.53;2065899;28;45849;-64
2022/03/02 03:34:46;;;;;;;;;;;;;;;3.14;74.93;102692.84;2065009;28;19919;-64
2022/03/02 03:35:50;;;;;;;;;;;;;;;3.14;74.58;102692.84;2064909;28;20638;-64
2022/03/02 03:36:52;;;;;;;;;;;;;;;3.13;74.35;102694.59;2064168;28;41734;-65
2022/03/02 03:37:54;;;;;;;;;;;;;;;3.11;74.28;102698.94;2064092;28;44034;-64
2022/03/02 03:38:56;;;;;;;;;;;;;;;3.11;74.38;102698.06;2064421;28;39530;-64
2022/03/02 03:39:57;;;;;;;;;;;;;;;3.09;74.74;102692.69;2064041;28;46305;-64
2022/03/02 03:40:59;;;;;;;;;;;;;;;3.11;75.35;102698.06;2064017;28;45026;-64
2022/03/02 03:42:01;;;;;;;;;;;;;;;3.07;75.57;102691.75;2063648;28;44393;-64
2022/03/02 03:43:03;;;;;;;;;;;;;;;3.05;75.60;102694.34;2064863;28;20052;-64
2022/03/02 03:44:04;;;;;;;;;;;;;;;3.03;75.50;102682.78;2063722;28;44786;-64
2022/03/02 03:45:07;;;;;;;;;;;;;;;3.01;75.46;102691.50;2064159;28;35696;-64
2022/03/02 03:46:09;;;;;;;;;;;;;;;3.00;76.19;102690.63;2063777;28;46626;-64
2022/03/02 03:47:11;;;;;;;;;;;;;;;2.99;75.95;102696.72;2063705;28;43361;-64
2022/03/02 03:48:13;;;;;;;;;;;;;;;2.97;75.83;102690.50;2063097;28;45488;-64
2022/03/02 03:49:14;;;;;;;;;;;;;;;2.95;76.15;102705.41;2064022;28;44534;-64
2022/03/02 03:50:16;;;;;;;;;;;;;;;2.95;76.30;102702.78;2063588;28;45103;-64
2022/03/02 03:51:18;;;;;;;;;;;;;;;2.93;76.68;102696.53;2063915;28;46600;-64
2022/03/02 03:52:21;;;;;;;;;;;;;;;2.92;76.48;102696.47;2064298;28;40916;-64
2022/03/02 03:53:23;;;;;;;;;;;;;;;2.93;76.09;102698.28;2064355;28;45607;-64
2022/03/02 03:54:25;;;;;;;;;;;;;;;2.91;76.30;102698.22;2064564;28;36054;-63
2022/03/02 03:55:26;;;;;;;;;;;;;;;2.91;76.50;102702.59;2064122;28;42887;-64
2022/03/02 03:56:30;;;;;;;;;;;;;;;2.89;76.58;102694.63;2064598;28;37859;-63
2022/03/02 03:57:32;;;;;;;;;;;;;;;2.86;76.00;102702.44;2063860;28;44435;-64
2022/03/02 03:58:34;;;;;;;;;;;;;;;2.86;76.47;102697.13;2065219;28;19992;-63
2022/03/02 03:59:35;;;;;;;;;;;;;;;2.86;76.73;102698.03;2063627;28;44342;-63
2022/03/02 04:00:37;;;;;;;;;;;;;;;2.84;76.47;102699.72;2064399;28;44256;-63
2022/03/02 04:01:38;;;;;;;;;;;;;;;2.84;75.85;102698.84;2063646;28;43772;-64
2022/03/02 04:02:43;;;;;;;;;;;;;;;2.83;76.62;102695.25;2065190;28;20780;-64
2022/03/02 04:03:45;;;;;;;;;;;;;;;2.82;76.98;102696.13;2065732;28;43298;-63
2022/03/02 04:04:46;;;;;;;;;;;;;;;2.83;76.60;102702.31;2064117;28;46673;-64
2022/03/02 04:05:48;;;;;;;;;;;;;;;2.82;76.54;102696.13;2071899;28;19926;-64
2022/03/02 04:06:50;;;;;;;;;;;;;;;2.82;76.59;102700.53;2070997;28;43174;-64
2022/03/02 04:07:52;;;;;;;;;;;;;;;2.80;77.12;102696.91;2064001;28;43071;-64
2022/03/02 04:08:56;;;;;;;;;;;;;;;2.80;76.64;102702.19;2064223;28;40570;-64
2022/03/02 04:10:00;;;;;;;;;;;;;;;2.79;77.27;102695.13;2065478;28;19934;-67
2022/03/02 04:11:01;;;;;;;;;;;;;;;2.78;76.77;102704.81;2064444;28;42822;-64
2022/03/02 04:12:03;;;;;;;;;;;;;;;2.78;76.54;102701.22;2063775;28;43176;-64
2022/03/02 04:13:05;;;;;;;;;;;;;;;2.77;76.39;102699.44;2064149;28;46322;-64
2022/03/02 04:14:08;;;;;;;;;;;;;;;2.77;76.71;102691.50;2063934;28;42617;-64
2022/03/02 04:15:12;;;;;;;;;;;;;;;2.75;76.82;102696.75;2063830;28;43921;-64
2022/03/02 04:16:16;;;;;;;;;;;;;;;2.75;76.87;102687.91;2063205;28;44222;-64
2022/03/02 04:17:17;;;;;;;;;;;;;;;2.75;76.56;102693.22;2064105;28;44195;-64
2022/03/02 04:18:19;;;;;;;;;;;;;;;2.73;76.28;102690.50;2062923;28;46557;-64
2022/03/02 04:19:21;;;;;;;;;;;;;;;2.73;77.20;102689.56;2063966;28;42804;-64
2022/03/02 04:20:22;;;;;;;;;;;;;;;2.72;76.75;102688.69;2063775;28;39941;-64
2022/03/02 04:21:27;;;;;;;;;;;;;;;2.71;77.61;102685.97;2065309;28;20461;-64
2022/03/02 04:22:29;;;;;;;;;;;;;;;2.71;77.21;102691.25;2063589;28;43965;-64
2022/03/02 04:23:31;;;;;;;;;;;;;;;2.69;76.62;102683.28;2064939;28;20031;-64
2022/03/02 04:24:32;;;;;;;;;;;;;;;2.70;77.63;102684.19;2063944;28;44279;-64
2022/03/02 04:25:34;;;;;;;;;;;;;;;2.68;76.86;102674.44;2064227;28;43835;-64
2022/03/02 04:26:36;;;;;;;;;;;;;;;2.68;77.61;102677.09;2063598;28;43469;-64
2022/03/02 04:27:37;;;;;;;;;;;;;;;2.68;76.66;102671.78;2064117;28;19922;-64
2022/03/02 04:28:40;;;;;;;;;;;;;;;2.68;77.44;102677.09;2063310;28;46606;-64
2022/03/02 04:29:41;;;;;;;;;;;;;;;2.66;77.13;102672.59;2064110;28;43058;-64
2022/03/02 04:30:43;;;;;;;;;;;;;;;2.68;77.53;102678.84;2070920;28;44026;-64
2022/03/02 04:31:45;;;;;;;;;;;;;;;2.66;77.29;102665.56;2071345;28;44947;-64
2022/03/02 04:32:48;;;;;;;;;;;;;;;2.66;76.96;102668.19;2063652;28;45262;-64
2022/03/02 04:33:49;;;;;;;;;;;;;;;2.67;77.79;102671.72;2064001;28;46168;-63
2022/03/02 04:34:51;;;;;;;;;;;;;;;2.66;77.36;102673.50;2063588;28;43975;-64
2022/03/02 04:35:53;;;;;;;;;;;;;;;2.65;77.27;102668.13;2063253;28;44363;-64
2022/03/02 04:36:55;;;;;;;;;;;;;;;2.64;77.04;102664.59;2063294;28;41465;-64
2022/03/02 04:37:58;;;;;;;;;;;;;;;2.63;77.81;102665.44;2063849;28;43918;-64
2022/03/02 04:39:00;;;;;;;;;;;;;;;2.62;76.94;102674.22;2063029;28;44894;-64
2022/03/02 04:40:03;;;;;;;;;;;;;;;2.64;77.76;102669.88;2063328;28;46088;-64
2022/03/02 04:41:05;;;;;;;;;;;;;;;2.64;77.85;102669.00;2062343;28;44231;-64
2022/03/02 04:42:07;;;;;;;;;;;;;;;2.62;76.92;102671.59;2063242;28;36906;-64
2022/03/02 04:43:09;;;;;;;;;;;;;;;2.62;77.02;102671.59;2062495;28;42103;-64
2022/03/02 04:44:10;;;;;;;;;;;;;;;2.59;77.40;102671.47;2062337;28;42876;-64
2022/03/02 04:45:12;;;;;;;;;;;;;;;2.58;77.58;102674.03;2056688;28;19930;-64
2022/03/02 04:46:14;;;;;;;;;;;;;;;2.55;77.60;102673.91;2055132;28;44259;-64
2022/03/02 04:47:18;;;;;;;;;;;;;;;2.55;77.62;102669.53;2054273;28;45285;-63
2022/03/02 04:48:20;;;;;;;;;;;;;;;2.54;78.13;102665.09;2055386;28;44496;-64
2022/03/02 04:49:22;;;;;;;;;;;;;;;2.49;77.47;102669.28;2063246;28;20691;-64
2022/03/02 04:50:25;;;;;;;;;;;;;;;2.49;78.28;102661.38;2063158;28;45764;-64
2022/03/02 04:51:27;;;;;;;;;;;;;;;2.46;78.10;102664.81;2063569;28;43886;-64
2022/03/02 04:52:28;;;;;;;;;;;;;;;2.43;78.23;102658.50;2063573;28;46342;-63
2022/03/02 04:53:32;;;;;;;;;;;;;;;2.40;78.40;102663.66;2064696;28;19933;-63
2022/03/02 04:55:55;;;;;;;;;;;;;;;2.33;78.54;102661.63;2062353;28;45325;-64
2022/03/02 04:56:59;;;;;;;;;;;;;;;2.27;78.37;102660.53;2058726;28;45596;-64
2022/03/02 04:58:04;;;;;;;;;;;;;;;2.27;79.16;102652.63;2054928;28;44602;-66
2022/03/02 04:59:07;;;;;;;;;;;;;;;2.25;78.57;102653.41;2055561;28;36456;-64
2022/03/02 05:00:15;;;;;;;;;;;;;;;2.22;78.68;102656.81;2054645;28;44184;-64
2022/03/02 05:01:16;;;;;;;;;;;;;;;2.21;78.79;102656.78;2054428;28;46393;-64
2022/03/02 05:02:18;;;;;;;;;;;;;;;2.18;78.59;102649.63;2055050;28;40351;-63
2022/03/02 05:03:20;;;;;;;;;;;;;;;2.14;78.86;102655.63;2057513;28;44032;-64
2022/03/02 05:04:21;;;;;;;;;;;;;;;2.15;78.62;102656.53;2063331;28;43379;-64
2022/03/02 05:05:25;;;;;;;;;;;;;;;2.13;79.45;102652.91;2063141;28;45186;-64
2022/03/02 05:06:26;;;;;;;;;;;;;;;2.11;78.53;102655.50;2069940;28;47756;-64
2022/03/02 05:07:28;;;;;;;;;;;;;;;2.11;79.10;102652.84;2071882;28;19929;-65
2022/03/02 05:08:30;;;;;;;;;;;;;;;2.00;79.27;102647.16;2062949;28;45325;-64
2022/03/02 05:09:31;;;;;;;;;;;;;;;1.97;78.88;102644.38;2063333;28;29269;-64
2022/03/02 05:10:33;;;;;;;;;;;;;;;1.98;79.38;102648.84;2063387;28;42913;-64
2022/03/02 05:11:36;;;;;;;;;;;;;;;2.00;79.40;102647.16;2063327;28;45226;-64
2022/03/02 05:12:38;;;;;;;;;;;;;;;1.95;78.84;102647.81;2063093;28;20900;-64
2022/03/02 05:13:40;;;;;;;;;;;;;;;1.97;79.90;102651.41;2062429;28;43474;-64
2022/03/02 05:14:41;;;;;;;;;;;;;;;1.96;79.37;102650.50;2062018;28;45722;-64
2022/03/02 05:15:43;;;;;;;;;;;;;;;1.90;79.29;102645.91;2063004;28;44266;-64
2022/03/02 05:16:44;;;;;;;;;;;;;;;1.91;79.88;102650.31;2062945;28;46512;-65
2022/03/02 05:17:46;;;;;;;;;;;;;;;1.87;79.06;102648.41;2062926;28;42837;-64
2022/03/02 05:18:48;;;;;;;;;;;;;;;1.87;80.51;102645.75;2063024;28;43718;-64
2022/03/02 05:19:50;;;;;;;;;;;;;;;1.89;79.34;102644.06;2062671;28;45798;-64
2022/03/02 05:20:51;;;;;;;;;;;;;;;1.85;79.79;102646.56;2062157;28;44249;-64
2022/03/02 05:21:53;;;;;;;;;;;;;;;1.86;80.86;102643.94;2064263;28;46433;-64
2022/03/02 05:22:55;;;;;;;;;;;;;;;1.82;79.69;102642.03;2063248;28;42855;-64
2022/03/02 05:23:56;;;;;;;;;;;;;;;1.86;80.08;102637.78;2062596;28;41264;-64
2022/03/02 05:24:58;;;;;;;;;;;;;;;1.85;79.62;102649.19;2062486;28;45345;-64
2022/03/02 05:25:59;;;;;;;;;;;;;;;1.87;79.82;102645.75;2062940;28;43552;-64